createdAt,value
2019-03-08T00:00:09.348Z,68.30
2019-03-08T00:02:38.004Z,67.90
2019-03-08T00:05:06.644Z,68.50
2019-03-08T00:07:35.712Z,67.90
2019-03-08T00:10:04.754Z,69.50
2019-03-08T00:12:33.378Z,69.40
2019-03-08T00:15:02.207Z,70.20
2019-03-08T00:17:30.825Z,71.70
2019-03-08T00:19:59.439Z,70.70
2019-03-08T00:22:28.688Z,71.60
2019-03-08T00:24:57.336Z,72.50
2019-03-08T00:27:25.981Z,73.30
2019-03-08T00:29:54.747Z,73.80
2019-03-08T00:32:23.492Z,73.30
2019-03-08T00:34:52.111Z,72.60
2019-03-08T00:37:20.870Z,72.00
2019-03-08T00:39:49.874Z,72.30
2019-03-08T00:42:18.486Z,72.80
2019-03-08T00:44:47.156Z,72.80
2019-03-08T00:47:17.014Z,72.70
2019-03-08T00:49:45.625Z,73.70
2019-03-08T00:52:15.245Z,74.70
2019-03-08T00:54:46.181Z,74.30
2019-03-08T00:57:14.882Z,74.40
2019-03-08T00:59:43.529Z,72.80
2019-03-08T01:02:12.147Z,73.30
2019-03-08T01:04:40.806Z,69.90
2019-03-08T01:07:09.466Z,70.70
2019-03-08T01:09:38.091Z,71.00
2019-03-08T01:12:06.749Z,73.00
2019-03-08T01:14:35.374Z,71.70
2019-03-08T01:17:03.982Z,71.90
2019-03-08T01:19:32.636Z,72.10
2019-03-08T01:22:01.298Z,73.50
2019-03-08T01:24:29.901Z,73.90
2019-03-08T01:26:58.580Z,75.00
2019-03-08T01:29:27.202Z,73.40
2019-03-08T01:31:55.839Z,72.80
2019-03-08T01:34:24.799Z,73.40
2019-03-08T01:36:53.474Z,70.50
2019-03-08T01:39:22.166Z,69.00
2019-03-08T01:41:50.786Z,68.40
2019-03-08T01:44:19.441Z,69.00
2019-03-08T01:46:48.070Z,69.80
2019-03-08T01:49:16.920Z,69.90
2019-03-08T01:51:46.438Z,70.30
2019-03-08T01:54:17.048Z,70.00
2019-03-08T01:56:47.162Z,70.80
2019-03-08T01:59:15.785Z,70.10
2019-03-08T02:01:45.666Z,71.50
2019-03-08T02:04:14.259Z,71.50
2019-03-08T02:06:42.906Z,71.80
2019-03-08T02:09:11.531Z,73.20
2019-03-08T02:11:40.197Z,73.70
2019-03-08T02:14:08.829Z,71.90
2019-03-08T02:16:37.493Z,72.70
2019-03-08T02:19:06.141Z,72.70
2019-03-08T02:21:34.786Z,71.10
2019-03-08T02:24:03.411Z,70.90
2019-03-08T02:26:32.059Z,73.80
2019-03-08T02:29:00.709Z,71.30
2019-03-08T02:31:29.519Z,71.60
2019-03-08T02:33:58.064Z,71.60
2019-03-08T02:36:26.682Z,71.90
2019-03-08T02:38:55.339Z,72.60
2019-03-08T02:41:24.005Z,73.40
2019-03-08T02:43:52.651Z,73.00
2019-03-08T02:46:21.305Z,74.10
2019-03-08T02:48:50.272Z,73.50
2019-03-08T02:51:18.918Z,73.50
2019-03-08T02:53:47.849Z,74.10
2019-03-08T02:56:16.503Z,74.90
2019-03-08T02:58:45.067Z,75.70
2019-03-08T03:01:14.295Z,75.80
2019-03-08T03:03:42.948Z,77.20
2019-03-08T03:06:11.883Z,77.10
2019-03-08T03:08:40.563Z,77.90
2019-03-08T03:11:09.177Z,79.70
2019-03-08T03:13:37.844Z,79.10
2019-03-08T03:16:07.110Z,78.40
2019-03-08T03:18:36.938Z,80.00
2019-03-08T03:21:05.941Z,80.30
2019-03-08T03:23:34.570Z,80.70
2019-03-08T03:26:03.214Z,81.50
2019-03-08T03:28:31.789Z,86.10
2019-03-08T03:31:00.421Z,88.20
2019-03-08T03:33:29.355Z,88.60
2019-03-08T03:35:57.940Z,89.50
2019-03-08T03:38:26.575Z,89.40
2019-03-08T03:40:55.296Z,90.50
2019-03-08T03:43:24.308Z,91.00
2019-03-08T03:45:52.972Z,90.90
2019-03-08T03:48:21.586Z,91.20
2019-03-08T03:50:50.229Z,91.60
2019-03-08T03:53:18.862Z,91.60
2019-03-08T03:55:47.525Z,91.80
2019-03-08T03:58:16.150Z,91.70
2019-03-08T04:00:44.788Z,91.80
2019-03-08T04:03:13.428Z,92.20
2019-03-08T04:05:42.052Z,92.30
2019-03-08T04:08:10.703Z,92.50
2019-03-08T04:10:39.326Z,92.60
2019-03-08T04:13:07.978Z,93.00
2019-03-08T04:15:36.650Z,93.10
2019-03-08T04:18:05.261Z,93.00
2019-03-08T04:20:33.917Z,93.00
2019-03-08T04:23:02.527Z,93.00
2019-03-08T04:25:31.111Z,93.10
2019-03-08T04:27:59.732Z,93.00
2019-03-08T04:30:28.377Z,92.80
2019-03-08T04:32:58.251Z,92.80
2019-03-08T04:35:26.826Z,93.10
2019-03-08T04:37:55.460Z,92.90
2019-03-08T04:40:24.122Z,92.90
2019-03-08T04:42:52.765Z,93.00
2019-03-08T04:45:21.380Z,92.90
2019-03-08T04:47:50.039Z,93.00
2019-03-08T04:50:18.686Z,93.10
2019-03-08T04:52:49.047Z,93.20
2019-03-08T04:55:19.916Z,93.00
2019-03-08T04:57:48.874Z,93.10
2019-03-08T05:00:18.518Z,93.00
2019-03-08T05:02:47.205Z,92.80
2019-03-08T05:05:15.799Z,92.80
2019-03-08T05:07:44.447Z,92.40
2019-03-08T05:10:15.663Z,92.40
2019-03-08T05:12:44.511Z,92.60
2019-03-08T05:15:13.189Z,92.70
2019-03-08T05:17:41.799Z,92.40
2019-03-08T05:20:10.859Z,92.30
2019-03-08T05:22:39.478Z,92.10
2019-03-08T05:25:09.662Z,92.40
2019-03-08T05:27:38.277Z,92.40
2019-03-08T05:30:10.617Z,92.90
2019-03-08T05:32:39.279Z,92.40
2019-03-08T05:35:09.094Z,92.50
2019-03-08T05:37:37.748Z,92.60
2019-03-08T05:40:08.803Z,92.50
2019-03-08T05:42:37.446Z,92.60
2019-03-08T05:45:07.777Z,92.70
2019-03-08T05:47:37.751Z,92.50
2019-03-08T05:50:08.040Z,92.20
2019-03-08T05:52:36.702Z,92.30
2019-03-08T05:55:08.345Z,92.40
2019-03-08T05:57:37.034Z,92.70
2019-03-08T06:00:11.226Z,92.40
2019-03-08T06:02:39.844Z,92.20
2019-03-08T06:05:09.218Z,92.30
2019-03-08T06:07:37.971Z,92.40
2019-03-08T06:10:30.142Z,92.30
2019-03-08T06:12:59.158Z,92.40
2019-03-08T06:15:27.810Z,92.50
2019-03-08T06:17:57.570Z,92.30
2019-03-08T06:20:26.593Z,92.80
2019-03-08T06:22:55.243Z,92.50
2019-03-08T06:25:23.859Z,92.70
2019-03-08T06:27:52.578Z,92.50
2019-03-08T06:30:21.542Z,92.40
2019-03-08T06:32:50.600Z,92.30
2019-03-08T06:35:19.523Z,92.40
2019-03-08T06:37:48.204Z,92.40
2019-03-08T06:40:16.864Z,92.30
2019-03-08T06:42:47.373Z,92.20
2019-03-08T06:45:17.117Z,92.30
2019-03-08T06:47:46.051Z,92.20
2019-03-08T06:50:15.405Z,92.20
2019-03-08T06:52:44.066Z,92.50
2019-03-08T06:55:14.159Z,92.50
2019-03-08T06:57:42.836Z,92.50
2019-03-08T07:00:32.232Z,92.50
2019-03-08T07:03:00.877Z,92.10
2019-03-08T07:05:29.332Z,92.30
2019-03-08T07:07:57.992Z,91.70
2019-03-08T07:10:26.601Z,91.50
2019-03-08T07:13:02.860Z,91.70
2019-03-08T07:15:25.552Z,91.40
2019-03-08T07:17:54.181Z,91.00
2019-03-08T07:20:27.609Z,90.80
2019-03-08T07:23:00.591Z,90.50
2019-03-08T07:25:51.398Z,90.20
2019-03-08T07:28:23.133Z,90.10
2019-03-08T07:31:09.860Z,89.40
2019-03-08T07:33:42.884Z,89.70
2019-03-08T07:36:19.148Z,89.60
2019-03-08T07:38:55.361Z,89.60
2019-03-08T07:41:34.290Z,89.50
2019-03-08T07:44:13.570Z,88.20
2019-03-08T07:47:00.092Z,87.90
2019-03-08T07:49:42.053Z,88.60
2019-03-08T07:52:20.922Z,87.40
2019-03-08T07:55:07.223Z,87.00
2019-03-08T07:57:40.569Z,86.90
2019-03-08T08:00:16.362Z,87.90
2019-03-08T08:02:46.548Z,88.90
2019-03-08T08:05:22.512Z,86.80
2019-03-08T08:08:01.774Z,87.20
2019-03-08T08:10:43.980Z,87.30
2019-03-08T08:13:26.018Z,87.80
2019-03-08T08:15:58.665Z,88.20
2019-03-08T08:18:37.701Z,88.00
2019-03-08T08:21:16.578Z,85.80
2019-03-08T08:24:02.862Z,87.10
2019-03-08T08:26:48.415Z,87.10
2019-03-08T08:29:34.687Z,90.30
2019-03-08T08:32:17.657Z,86.90
2019-03-08T08:34:47.908Z,87.60
2019-03-08T08:37:22.686Z,87.00
2019-03-08T08:39:55.876Z,86.50
2019-03-08T08:42:44.069Z,87.40
2019-03-08T08:45:26.430Z,85.70
2019-03-08T08:48:15.174Z,86.70
2019-03-08T08:50:54.121Z,87.30
2019-03-08T08:53:26.956Z,86.00
2019-03-08T08:56:09.379Z,85.60
2019-03-08T08:58:45.340Z,85.10
2019-03-08T09:01:24.197Z,82.60
2019-03-08T09:04:10.417Z,81.30
2019-03-08T09:06:46.479Z,83.50
2019-03-08T09:09:22.536Z,82.40
2019-03-08T09:12:09.228Z,82.10
2019-03-08T09:14:48.234Z,80.80
2019-03-08T09:17:34.704Z,80.60
2019-03-08T09:20:21.211Z,81.50
2019-03-08T09:23:06.441Z,79.40
2019-03-08T09:25:37.285Z,79.70
2019-03-08T09:28:07.436Z,79.20
2019-03-08T09:30:43.489Z,79.50
2019-03-08T09:33:13.669Z,79.80
2019-03-08T09:36:00.304Z,81.90
2019-03-08T09:38:30.490Z,81.10
2019-03-08T09:41:12.458Z,79.00
2019-03-08T09:43:58.559Z,80.50
2019-03-08T09:46:34.411Z,80.40
2019-03-08T09:49:16.658Z,79.20
2019-03-08T09:52:03.346Z,79.50
2019-03-08T09:54:39.540Z,79.70
2019-03-08T09:57:10.736Z,79.70
2019-03-08T09:59:46.653Z,81.50
2019-03-08T10:02:23.361Z,79.60
2019-03-08T10:04:53.589Z,78.30
2019-03-08T10:07:24.224Z,78.30
2019-03-08T10:10:00.128Z,77.60
2019-03-08T10:12:33.279Z,79.00
2019-03-08T10:15:03.480Z,78.10
2019-03-08T10:17:33.727Z,77.40
2019-03-08T10:20:07.297Z,76.90
2019-03-08T10:22:39.003Z,77.40
2019-03-08T10:25:12.038Z,76.60
2019-03-08T10:27:47.783Z,79.40
2019-03-08T10:30:31.895Z,80.00
2019-03-08T10:33:11.046Z,77.80
2019-03-08T10:35:49.976Z,79.20
2019-03-08T10:38:26.276Z,78.50
2019-03-08T10:41:05.542Z,78.50
2019-03-08T10:43:35.765Z,78.80
2019-03-08T10:46:15.923Z,78.70
2019-03-08T10:48:49.057Z,76.10
2019-03-08T10:51:28.040Z,76.90
2019-03-08T10:54:00.877Z,75.10
2019-03-08T10:56:32.831Z,73.60
2019-03-08T10:59:03.558Z,76.50
2019-03-08T11:01:36.640Z,73.10
2019-03-08T11:04:21.859Z,77.30
2019-03-08T11:06:54.896Z,77.50
2019-03-08T11:09:27.956Z,76.80
2019-03-08T11:12:16.072Z,76.70
2019-03-08T11:14:58.341Z,75.50
2019-03-08T11:17:32.534Z,74.40
2019-03-08T11:20:18.942Z,76.90
2019-03-08T11:22:51.976Z,75.00
2019-03-08T11:25:22.207Z,73.20
2019-03-08T11:27:58.513Z,75.20
2019-03-08T11:30:40.618Z,73.50
2019-03-08T11:33:19.805Z,72.80
2019-03-08T11:35:59.032Z,75.10
2019-03-08T11:38:29.259Z,74.10
2019-03-08T11:40:59.436Z,77.10
2019-03-08T11:43:30.050Z,76.70
2019-03-08T11:46:00.587Z,74.80
2019-03-08T11:48:33.216Z,75.80
2019-03-08T11:51:06.099Z,74.80
2019-03-08T11:53:55.946Z,74.90
2019-03-08T11:56:36.505Z,74.70
2019-03-08T11:59:09.392Z,75.10
2019-03-08T12:01:51.683Z,74.80
2019-03-08T12:04:38.296Z,77.50
2019-03-08T12:07:10.993Z,75.70
2019-03-08T12:09:59.138Z,74.60
2019-03-08T12:12:35.106Z,73.10
2019-03-08T12:15:06.823Z,72.50
2019-03-08T12:17:38.100Z,73.60
2019-03-08T12:20:11.442Z,73.70
2019-03-08T12:22:44.773Z,73.60
2019-03-08T12:25:16.902Z,71.60
2019-03-08T12:27:49.358Z,71.60
2019-03-08T12:30:22.254Z,72.60
2019-03-08T12:32:58.628Z,70.80
2019-03-08T12:35:34.767Z,71.20
2019-03-08T12:38:04.987Z,72.80
2019-03-08T12:40:53.435Z,72.70
2019-03-08T12:43:26.329Z,75.50
2019-03-08T12:46:12.522Z,74.10
2019-03-08T12:48:57.581Z,74.80
2019-03-08T12:51:43.702Z,76.70
2019-03-08T12:54:19.460Z,74.70
2019-03-08T12:57:01.930Z,75.00
2019-03-08T12:59:41.256Z,75.80
2019-03-08T13:02:26.415Z,75.50
2019-03-08T13:05:02.138Z,76.00
2019-03-08T13:07:32.335Z,78.30
2019-03-08T13:10:11.599Z,78.30
2019-03-08T13:12:41.353Z,77.60
2019-03-08T13:15:12.665Z,79.50
2019-03-08T13:17:41.363Z,77.70
2019-03-08T13:20:13.172Z,78.50
2019-03-08T13:22:41.822Z,79.20
2019-03-08T13:25:10.495Z,79.30
2019-03-08T13:27:39.358Z,79.40
2019-03-08T13:30:13.667Z,79.90
2019-03-08T13:32:42.309Z,80.50
2019-03-08T13:35:13.263Z,80.60
2019-03-08T13:37:41.875Z,81.70
2019-03-08T13:40:13.352Z,82.60
2019-03-08T13:42:42.952Z,81.40
2019-03-08T13:45:22.105Z,82.50
2019-03-08T13:47:50.700Z,82.30
2019-03-08T13:50:19.349Z,83.50
2019-03-08T13:52:48.197Z,83.10
2019-03-08T13:55:17.526Z,82.40
2019-03-08T13:57:46.191Z,83.10
2019-03-08T14:00:18.929Z,84.10
2019-03-08T14:02:47.606Z,82.90
2019-03-08T14:05:16.215Z,83.90
2019-03-08T14:07:45.732Z,83.80
2019-03-08T14:10:22.569Z,85.90
2019-03-08T14:12:51.225Z,83.90
2019-03-08T14:15:21.147Z,84.50
2019-03-08T14:17:49.758Z,85.50
2019-03-08T14:20:23.430Z,86.50
2019-03-08T14:22:52.050Z,86.20
2019-03-08T14:25:21.023Z,87.30
2019-03-08T14:27:49.724Z,86.50
2019-03-08T14:30:22.293Z,87.50
2019-03-08T14:32:51.283Z,86.60
2019-03-08T14:35:19.935Z,86.90
2019-03-08T14:37:52.186Z,86.00
2019-03-08T14:40:20.870Z,86.30
2019-03-08T14:42:52.261Z,87.10
2019-03-08T14:45:22.683Z,86.00
2019-03-08T14:47:51.670Z,87.60
2019-03-08T14:50:20.446Z,86.50
2019-03-08T14:52:49.455Z,87.80
2019-03-08T14:55:18.992Z,87.50
2019-03-08T14:57:48.383Z,87.80
2019-03-08T15:00:19.031Z,86.90
2019-03-08T15:02:48.669Z,89.30
2019-03-08T15:05:19.011Z,87.70
2019-03-08T15:07:47.696Z,88.30
2019-03-08T15:10:18.194Z,88.00
2019-03-08T15:12:49.170Z,88.10
2019-03-08T15:15:17.556Z,87.60
2019-03-08T15:17:49.559Z,88.50
2019-03-08T15:20:18.278Z,89.40
2019-03-08T15:22:47.234Z,89.20
2019-03-08T15:25:16.240Z,89.40
2019-03-08T15:27:45.271Z,89.40
2019-03-08T15:30:18.262Z,88.90
2019-03-08T15:32:46.924Z,90.10
2019-03-08T15:35:16.349Z,89.30
2019-03-08T15:37:45.665Z,90.20
2019-03-08T15:40:17.289Z,89.60
2019-03-08T15:42:45.831Z,90.30
2019-03-08T15:45:14.880Z,90.40
2019-03-08T15:47:43.860Z,90.80
2019-03-08T15:50:20.237Z,90.80
2019-03-08T15:52:48.868Z,90.70
2019-03-08T15:55:18.481Z,91.10
2019-03-08T15:57:47.114Z,91.10
2019-03-08T16:00:17.767Z,91.10
2019-03-08T16:02:46.387Z,91.30
2019-03-08T16:05:16.712Z,91.40
2019-03-08T16:07:46.366Z,91.20
2019-03-08T16:10:20.676Z,91.30
2019-03-08T16:12:49.258Z,91.30
2019-03-08T16:15:19.363Z,91.30
2019-03-08T16:17:48.105Z,91.50
2019-03-08T16:20:18.454Z,91.60
2019-03-08T16:22:47.175Z,91.70
2019-03-08T16:25:16.471Z,91.80
2019-03-08T16:27:45.164Z,91.70
2019-03-08T16:30:25.440Z,91.90
2019-03-08T16:33:03.156Z,91.90
2019-03-08T16:35:34.551Z,91.80
2019-03-08T16:38:23.202Z,92.10
2019-03-08T16:41:12.537Z,92.20
2019-03-08T16:44:01.138Z,92.00
2019-03-08T16:46:47.124Z,92.00
2019-03-08T16:49:18.738Z,92.00
2019-03-08T16:52:05.962Z,92.40
2019-03-08T16:54:38.778Z,92.10
2019-03-08T16:57:21.116Z,92.20
2019-03-08T17:00:05.253Z,92.00
2019-03-08T17:02:47.834Z,92.30
2019-03-08T17:05:20.750Z,92.20
2019-03-08T17:07:50.970Z,92.50
2019-03-08T17:10:21.161Z,92.40
2019-03-08T17:12:51.372Z,92.40
2019-03-08T17:15:21.608Z,92.40
2019-03-08T17:18:04.197Z,92.60
2019-03-08T17:20:34.410Z,92.70
2019-03-08T17:23:04.651Z,92.60
2019-03-08T17:25:37.500Z,92.60
2019-03-08T17:28:24.415Z,92.50
2019-03-08T17:30:59.537Z,92.70
2019-03-08T17:33:35.652Z,92.70
2019-03-08T17:36:05.927Z,92.80
2019-03-08T17:38:38.925Z,93.00
2019-03-08T17:41:09.348Z,93.30
2019-03-08T17:43:55.838Z,93.40
2019-03-08T17:46:30.304Z,93.40
2019-03-08T17:49:00.691Z,93.50
2019-03-08T17:51:30.915Z,93.60
2019-03-08T17:54:01.103Z,93.60
2019-03-08T17:56:47.643Z,93.60
2019-03-08T17:59:53.576Z,93.70
2019-03-08T18:02:29.532Z,94.10
2019-03-08T18:05:07.874Z,93.80
2019-03-08T18:07:38.059Z,93.80
2019-03-08T18:10:10.467Z,94.00
2019-03-08T18:12:40.680Z,93.80
2019-03-08T18:15:27.228Z,94.00
2019-03-08T18:18:00.274Z,94.10
2019-03-08T18:20:45.715Z,93.90
2019-03-08T18:23:34.176Z,93.90
2019-03-08T18:26:06.894Z,93.90
2019-03-08T18:28:49.470Z,94.10
2019-03-08T18:31:19.710Z,94.10
2019-03-08T18:33:58.594Z,93.90
2019-03-08T18:36:46.770Z,93.90
2019-03-08T18:39:22.924Z,93.90
2019-03-08T18:42:09.612Z,93.90
2019-03-08T18:44:57.896Z,94.00
2019-03-08T18:47:46.070Z,94.00
2019-03-08T18:50:19.511Z,94.10
2019-03-08T18:52:51.222Z,94.10
2019-03-08T18:55:33.257Z,94.10
2019-03-08T18:58:15.712Z,94.10
2019-03-08T19:00:48.504Z,94.10
2019-03-08T19:03:21.348Z,94.00
2019-03-08T19:05:54.399Z,94.20
2019-03-08T19:08:24.925Z,94.20
2019-03-08T19:11:00.603Z,94.00
2019-03-08T19:13:30.921Z,94.30
2019-03-08T19:16:03.670Z,94.50
2019-03-08T19:18:52.414Z,94.90
2019-03-08T19:21:37.699Z,95.00
2019-03-08T19:24:07.899Z,95.10
2019-03-08T19:26:52.970Z,95.30
2019-03-08T19:29:23.201Z,95.90
2019-03-08T19:31:56.439Z,95.80
2019-03-08T19:34:26.710Z,96.10
2019-03-08T19:36:59.446Z,96.00
2019-03-08T19:39:31.405Z,96.30
2019-03-08T19:42:17.928Z,96.40
2019-03-08T19:44:50.570Z,96.60
2019-03-08T19:47:23.257Z,97.10
2019-03-08T19:50:01.939Z,96.90
2019-03-08T19:52:32.123Z,97.00
2019-03-08T19:55:02.315Z,97.20
2019-03-08T19:57:37.981Z,97.20
2019-03-08T20:00:14.446Z,97.40
2019-03-08T20:02:50.655Z,97.50
2019-03-08T20:05:24.102Z,97.70
2019-03-08T20:07:57.158Z,97.80
2019-03-08T20:10:36.351Z,97.80
2019-03-08T20:13:10.890Z,98.00
2019-03-08T20:15:46.906Z,98.10
2019-03-08T20:18:34.171Z,98.00
2019-03-08T20:21:06.427Z,98.00
2019-03-08T20:23:36.500Z,98.10
2019-03-08T20:26:22.863Z,98.20
2019-03-08T20:28:58.707Z,98.10
2019-03-08T20:31:34.653Z,98.10
2019-03-08T20:34:17.089Z,98.00
2019-03-08T20:37:02.251Z,98.10
2019-03-08T20:39:35.201Z,98.00
2019-03-08T20:42:05.460Z,97.70
2019-03-08T20:44:50.793Z,97.40
2019-03-08T20:47:24.247Z,97.40
2019-03-08T20:49:54.192Z,97.40
2019-03-08T20:52:22.821Z,97.30
2019-03-08T20:54:51.859Z,97.20
2019-03-08T20:57:20.523Z,97.20
2019-03-08T20:59:49.500Z,97.10
2019-03-08T21:02:18.255Z,96.80
2019-03-08T21:04:47.208Z,96.80
2019-03-08T21:07:15.897Z,96.80
2019-03-08T21:09:44.588Z,96.70
2019-03-08T21:12:13.279Z,96.60
2019-03-08T21:14:41.937Z,96.70
2019-03-08T21:17:10.540Z,96.60
2019-03-08T21:19:40.549Z,96.20
2019-03-08T21:22:09.259Z,96.20
2019-03-08T21:24:39.797Z,96.30
2019-03-08T21:27:08.542Z,96.20
2019-03-08T21:29:38.248Z,96.00
2019-03-08T21:32:07.550Z,96.00
2019-03-08T21:34:36.326Z,95.90
2019-03-08T21:37:06.967Z,95.90
2019-03-08T21:39:37.212Z,95.80
2019-03-08T21:42:05.798Z,95.70
2019-03-08T21:44:34.747Z,95.40
2019-03-08T21:47:03.362Z,95.40
2019-03-08T21:49:32.118Z,95.30
2019-03-08T21:52:02.705Z,95.10
2019-03-08T21:54:33.178Z,95.20
2019-03-08T21:57:02.267Z,94.80
2019-03-08T21:59:30.909Z,94.90
2019-03-08T22:01:59.604Z,94.40
2019-03-08T22:04:32.282Z,94.50
2019-03-08T22:07:03.000Z,94.20
2019-03-08T22:09:33.059Z,94.40
2019-03-08T22:12:01.762Z,94.30
2019-03-08T22:14:30.841Z,93.90
2019-03-08T22:17:01.074Z,94.00
2019-03-08T22:19:29.828Z,94.50
2019-03-08T22:21:58.685Z,93.90
2019-03-08T22:24:28.728Z,94.00
2019-03-08T22:26:57.514Z,94.00
2019-03-08T22:29:26.147Z,93.70
2019-03-08T22:31:54.768Z,94.10
2019-03-08T22:34:23.548Z,94.10
2019-03-08T22:36:53.819Z,94.30
2019-03-08T22:39:22.507Z,94.20
2019-03-08T22:41:54.790Z,94.00
2019-03-08T22:44:23.212Z,94.10
2019-03-08T22:46:53.343Z,93.80
2019-03-08T22:49:22.179Z,94.10
2019-03-08T22:51:51.187Z,93.80
2019-03-08T22:54:19.875Z,93.90
2019-03-08T22:56:48.671Z,93.60
2019-03-08T22:59:17.831Z,93.70
2019-03-08T23:01:48.057Z,93.60
2019-03-08T23:04:17.292Z,93.70
2019-03-08T23:06:46.086Z,93.50
2019-03-08T23:09:15.513Z,93.40
2019-03-08T23:11:44.164Z,93.70
2019-03-08T23:14:13.011Z,93.70
2019-03-08T23:16:41.644Z,93.70
2019-03-08T23:19:10.274Z,94.40
2019-03-08T23:21:39.431Z,93.90
2019-03-08T23:24:08.041Z,93.60
2019-03-08T23:26:40.384Z,93.70
2019-03-08T23:29:13.552Z,93.60
2019-03-08T23:31:45.358Z,93.50
2019-03-08T23:34:16.516Z,93.80
2019-03-08T23:36:45.372Z,93.50
2019-03-08T23:39:14.923Z,93.50
2019-03-08T23:41:44.825Z,93.40
2019-03-08T23:44:14.914Z,93.40
2019-03-08T23:46:44.821Z,93.50
2019-03-08T23:49:14.264Z,93.50
2019-03-08T23:51:44.508Z,93.70
2019-03-08T23:54:15.445Z,93.40
2019-03-08T23:56:45.856Z,93.00
2019-03-08T23:59:16.181Z,92.70
